sensor_id;sensor_type;location;lat;lon;timestamp;pressure;altitude;pressure_sealevel;temperature;humidity
9235;BME280;4652;42.716;23.218;2023-09-19T00:04:51;95188.72;;;13.16;100.00
9235;BME280;4652;42.716;23.218;2023-09-19T00:11:34;95182.53;;;12.97;100.00
9235;BME280;4652;42.716;23.218;2023-09-19T00:18:18;95188.94;;;13.01;100.00
9235;BME280;4652;42.716;23.218;2023-09-19T00:25:02;95173.69;;;12.91;100.00
9235;BME280;4652;42.716;23.218;2023-09-19T00:31:44;95174.00;;;12.71;100.00
9235;BME280;4652;42.716;23.218;2023-09-19T00:38:28;95172.75;;;12.64;100.00
9235;BME280;4652;42.716;23.218;2023-09-19T00:45:12;95188.81;;;12.74;100.00
9235;BME280;4652;42.716;23.218;2023-09-19T00:51:55;95162.25;;;12.81;100.00
9235;BME280;4652;42.716;23.218;2023-09-19T00:58:39;95174.84;;;12.85;100.00
9235;BME280;4652;42.716;23.218;2023-09-19T01:07:59;95181.50;;;12.74;100.00
9235;BME280;4652;42.716;23.218;2023-09-19T01:14:47;95157.28;;;12.51;100.00
9235;BME280;4652;42.716;23.218;2023-09-19T01:21:46;95187.09;;;12.64;100.00
9235;BME280;4652;42.716;23.218;2023-09-19T01:29:06;95170.72;;;12.56;100.00
9235;BME280;4652;42.716;23.218;2023-09-19T01:35:56;95173.56;;;12.46;100.00
9235;BME280;4652;42.716;23.218;2023-09-19T01:42:49;95171.59;;;12.32;100.00
9235;BME280;4652;42.716;23.218;2023-09-19T01:49:42;95177.50;;;12.34;100.00
9235;BME280;4652;42.716;23.218;2023-09-19T01:56:32;95178.44;;;12.25;100.00
9235;BME280;4652;42.716;23.218;2023-09-19T02:03:16;95179.91;;;12.17;100.00
9235;BME280;4652;42.716;23.218;2023-09-19T02:09:58;95178.78;;;12.18;100.00
9235;BME280;4652;42.716;23.218;2023-09-19T02:16:42;95176.56;;;12.25;100.00
9235;BME280;4652;42.716;23.218;2023-09-19T02:23:25;95174.13;;;12.24;100.00
9235;BME280;4652;42.716;23.218;2023-09-19T02:30:08;95166.03;;;12.24;100.00
9235;BME280;4652;42.716;23.218;2023-09-19T02:36:51;95165.88;;;12.15;100.00
9235;BME280;4652;42.716;23.218;2023-09-19T02:43:34;95154.34;;;12.10;100.00
9235;BME280;4652;42.716;23.218;2023-09-19T02:50:17;95135.34;;;11.96;100.00
9235;BME280;4652;42.716;23.218;2023-09-19T02:57:00;95147.19;;;12.00;100.00
9235;BME280;4652;42.716;23.218;2023-09-19T03:03:44;95138.59;;;11.98;100.00
9235;BME280;4652;42.716;23.218;2023-09-19T03:10:26;95137.47;;;11.99;100.00
9235;BME280;4652;42.716;23.218;2023-09-19T03:17:11;95096.09;;;11.61;100.00
9235;BME280;4652;42.716;23.218;2023-09-19T03:23:55;95133.44;;;11.78;100.00
9235;BME280;4652;42.716;23.218;2023-09-19T03:30:37;95138.84;;;11.78;100.00
9235;BME280;4652;42.716;23.218;2023-09-19T03:37:21;95131.44;;;11.60;100.00
9235;BME280;4652;42.716;23.218;2023-09-19T03:44:04;95155.13;;;11.68;100.00
9235;BME280;4652;42.716;23.218;2023-09-19T03:50:46;95148.44;;;11.60;100.00
9235;BME280;4652;42.716;23.218;2023-09-19T03:57:29;95162.66;;;11.66;100.00
9235;BME280;4652;42.716;23.218;2023-09-19T04:04:12;95165.63;;;11.69;100.00
9235;BME280;4652;42.716;23.218;2023-09-19T04:10:55;95169.19;;;11.65;100.00
9235;BME280;4652;42.716;23.218;2023-09-19T04:17:38;95166.88;;;11.77;100.00
9235;BME280;4652;42.716;23.218;2023-09-19T04:24:20;95156.16;;;11.96;100.00
9235;BME280;4652;42.716;23.218;2023-09-19T04:31:02;95152.91;;;12.17;100.00
9235;BME280;4652;42.716;23.218;2023-09-19T04:37:45;95152.91;;;12.55;100.00
9235;BME280;4652;42.716;23.218;2023-09-19T04:44:28;95142.66;;;12.89;100.00
9235;BME280;4652;42.716;23.218;2023-09-19T04:51:10;95144.09;;;13.46;100.00
9235;BME280;4652;42.716;23.218;2023-09-19T04:57:54;95147.59;;;14.14;100.00
9235;BME280;4652;42.716;23.218;2023-09-19T05:04:36;95138.22;;;14.84;100.00
9235;BME280;4652;42.716;23.218;2023-09-19T05:11:18;95139.50;;;15.61;100.00
9235;BME280;4652;42.716;23.218;2023-09-19T05:18:04;95122.28;;;16.14;100.00
9235;BME280;4652;42.716;23.218;2023-09-19T05:24:46;95127.16;;;16.77;100.00
9235;BME280;4652;42.716;23.218;2023-09-19T05:31:28;95114.34;;;17.12;100.00
9235;BME280;4652;42.716;23.218;2023-09-19T05:38:12;95101.88;;;18.03;100.00
9235;BME280;4652;42.716;23.218;2023-09-19T05:44:56;95108.59;;;18.35;100.00
9235;BME280;4652;42.716;23.218;2023-09-19T05:51:39;95066.53;;;18.86;100.00
9235;BME280;4652;42.716;23.218;2023-09-19T05:58:22;95093.50;;;19.65;100.00
9235;BME280;4652;42.716;23.218;2023-09-19T06:05:05;95083.84;;;21.20;88.51
9235;BME280;4652;42.716;23.218;2023-09-19T06:11:50;95073.69;;;21.21;80.92
9235;BME280;4652;42.716;23.218;2023-09-19T06:18:33;95069.06;;;22.31;71.90
9235;BME280;4652;42.716;23.218;2023-09-19T06:25:17;95064.16;;;25.31;60.07
9235;BME280;4652;42.716;23.218;2023-09-19T06:31:59;95067.19;;;26.37;54.97
9235;BME280;4652;42.716;23.218;2023-09-19T06:38:43;95070.22;;;25.10;59.51
9235;BME280;4652;42.716;23.218;2023-09-19T06:45:25;95060.69;;;24.22;61.10
9235;BME280;4652;42.716;23.218;2023-09-19T06:52:07;95067.59;;;23.67;63.84
9235;BME280;4652;42.716;23.218;2023-09-19T06:58:51;95084.50;;;23.88;62.93
9235;BME280;4652;42.716;23.218;2023-09-19T08:38:30;95060.00;;;23.19;66.66
9235;BME280;4652;42.716;23.218;2023-09-19T08:45:13;95053.25;;;23.55;64.46
9235;BME280;4652;42.716;23.218;2023-09-19T08:52:05;95030.16;;;22.79;65.48
9235;BME280;4652;42.716;23.218;2023-09-19T08:58:55;95051.50;;;22.00;68.86
9235;BME280;4652;42.716;23.218;2023-09-19T09:05:41;95025.09;;;22.46;68.54
9235;BME280;4652;42.716;23.218;2023-09-19T09:12:26;95040.56;;;22.70;66.88
9235;BME280;4652;42.716;23.218;2023-09-19T09:19:10;95020.97;;;22.71;67.02
9235;BME280;4652;42.716;23.218;2023-09-19T09:25:55;95003.19;;;22.85;65.06
9235;BME280;4652;42.716;23.218;2023-09-19T09:32:40;94996.78;;;23.38;63.60
9235;BME280;4652;42.716;23.218;2023-09-19T09:39:31;94990.59;;;23.67;63.79
9235;BME280;4652;42.716;23.218;2023-09-19T09:46:16;94979.13;;;23.39;62.82
9235;BME280;4652;42.716;23.218;2023-09-19T09:53:22;94989.50;;;23.07;63.89
9235;BME280;4652;42.716;23.218;2023-09-19T10:00:10;94979.69;;;22.87;65.14
9235;BME280;4652;42.716;23.218;2023-09-19T10:07:01;94975.69;;;22.81;66.35
9235;BME280;4652;42.716;23.218;2023-09-19T10:13:46;94978.47;;;22.65;65.96
9235;BME280;4652;42.716;23.218;2023-09-19T10:20:30;94983.63;;;22.67;65.35
9235;BME280;4652;42.716;23.218;2023-09-19T10:27:17;94986.94;;;22.76;65.73
9235;BME280;4652;42.716;23.218;2023-09-19T10:34:03;94979.88;;;22.59;65.54
9235;BME280;4652;42.716;23.218;2023-09-19T10:40:51;94976.59;;;22.89;68.93
9235;BME280;4652;42.716;23.218;2023-09-19T10:47:34;94943.97;;;22.64;69.29
9235;BME280;4652;42.716;23.218;2023-09-19T10:54:19;94955.53;;;22.96;66.44
9235;BME280;4652;42.716;23.218;2023-09-19T11:01:05;94945.25;;;23.35;64.63
9235;BME280;4652;42.716;23.218;2023-09-19T11:07:58;94945.63;;;23.56;64.26
9235;BME280;4652;42.716;23.218;2023-09-19T11:14:41;94942.59;;;23.87;62.84
9235;BME280;4652;42.716;23.218;2023-09-19T11:21:56;94935.13;;;24.11;62.18
9235;BME280;4652;42.716;23.218;2023-09-19T11:28:39;94920.69;;;24.21;61.48
9235;BME280;4652;42.716;23.218;2023-09-19T11:35:22;94863.28;;;23.63;61.79
9235;BME280;4652;42.716;23.218;2023-09-19T11:42:42;94901.72;;;23.86;62.49
9235;BME280;4652;42.716;23.218;2023-09-19T11:49:27;94905.00;;;24.25;62.45
9235;BME280;4652;42.716;23.218;2023-09-19T11:56:11;94890.13;;;24.29;61.12
9235;BME280;4652;42.716;23.218;2023-09-19T12:03:02;94880.06;;;24.40;60.86
9235;BME280;4652;42.716;23.218;2023-09-19T12:09:51;94868.75;;;24.82;60.69
9235;BME280;4652;42.716;23.218;2023-09-19T12:16:51;94852.81;;;25.05;58.85
9235;BME280;4652;42.716;23.218;2023-09-19T12:23:37;94845.84;;;25.19;58.60
9235;BME280;4652;42.716;23.218;2023-09-19T12:30:27;94832.59;;;24.87;59.16
9235;BME280;4652;42.716;23.218;2023-09-19T12:37:14;94834.16;;;24.88;59.29
9235;BME280;4652;42.716;23.218;2023-09-19T12:44:03;94823.91;;;24.85;59.98
9235;BME280;4652;42.716;23.218;2023-09-19T12:51:03;94827.34;;;24.79;59.78
9235;BME280;4652;42.716;23.218;2023-09-19T12:57:56;94815.28;;;24.90;60.01
9235;BME280;4652;42.716;23.218;2023-09-19T15:18:31;94728.75;;;24.98;60.02
9235;BME280;4652;42.716;23.218;2023-09-19T15:25:14;94727.88;;;24.87;60.33
9235;BME280;4652;42.716;23.218;2023-09-19T15:31:56;94733.25;;;24.73;60.69
9235;BME280;4652;42.716;23.218;2023-09-19T15:38:57;94697.59;;;24.43;61.28
9235;BME280;4652;42.716;23.218;2023-09-19T15:45:39;94737.03;;;24.58;61.68
9235;BME280;4652;42.716;23.218;2023-09-19T15:52:22;94760.16;;;24.46;62.63
9235;BME280;4652;42.716;23.218;2023-09-19T15:59:08;94754.91;;;24.34;63.27
9235;BME280;4652;42.716;23.218;2023-09-19T16:05:52;94761.00;;;24.17;66.49
9235;BME280;4652;42.716;23.218;2023-09-19T16:12:34;94758.25;;;23.84;69.68
9235;BME280;4652;42.716;23.218;2023-09-19T16:19:19;94760.94;;;23.47;76.20
9235;BME280;4652;42.716;23.218;2023-09-19T16:26:03;94745.47;;;22.87;76.97
9235;BME280;4652;42.716;23.218;2023-09-19T16:32:46;94767.53;;;22.48;87.08
9235;BME280;4652;42.716;23.218;2023-09-19T16:39:29;94775.28;;;22.01;95.56
9235;BME280;4652;42.716;23.218;2023-09-19T16:46:12;94784.47;;;21.74;100.00
9235;BME280;4652;42.716;23.218;2023-09-19T16:52:56;94790.19;;;21.30;100.00
9235;BME280;4652;42.716;23.218;2023-09-19T16:59:39;94803.06;;;20.95;100.00
9235;BME280;4652;42.716;23.218;2023-09-19T17:06:21;94810.81;;;20.77;100.00
9235;BME280;4652;42.716;23.218;2023-09-19T17:13:05;94807.28;;;20.45;100.00
9235;BME280;4652;42.716;23.218;2023-09-19T17:19:49;94804.88;;;20.28;100.00
9235;BME280;4652;42.716;23.218;2023-09-19T17:26:31;94802.69;;;20.06;100.00
9235;BME280;4652;42.716;23.218;2023-09-19T17:33:14;94792.56;;;19.79;100.00
9235;BME280;4652;42.716;23.218;2023-09-19T17:39:57;94817.16;;;19.79;100.00
9235;BME280;4652;42.716;23.218;2023-09-19T17:46:43;94819.28;;;19.58;100.00
9235;BME280;4652;42.716;23.218;2023-09-19T17:53:24;94822.25;;;19.41;100.00
9235;BME280;4652;42.716;23.218;2023-09-19T18:00:11;94832.28;;;19.24;100.00
9235;BME280;4652;42.716;23.218;2023-09-19T18:06:53;94829.34;;;19.05;100.00
9235;BME280;4652;42.716;23.218;2023-09-19T18:13:36;94818.88;;;18.83;100.00
9235;BME280;4652;42.716;23.218;2023-09-19T18:20:19;94835.22;;;18.71;100.00
9235;BME280;4652;42.716;23.218;2023-09-19T18:27:03;94846.03;;;18.80;100.00
9235;BME280;4652;42.716;23.218;2023-09-19T19:07:59;94886.97;;;18.80;100.00
9235;BME280;4652;42.716;23.218;2023-09-19T19:14:42;94854.09;;;18.76;100.00
9235;BME280;4652;42.716;23.218;2023-09-19T19:21:25;94885.94;;;18.84;100.00
9235;BME280;4652;42.716;23.218;2023-09-19T19:28:09;94886.41;;;18.98;100.00
9235;BME280;4652;42.716;23.218;2023-09-19T19:34:51;94900.97;;;19.14;100.00
9235;BME280;4652;42.716;23.218;2023-09-19T19:41:36;94921.00;;;19.18;100.00
9235;BME280;4652;42.716;23.218;2023-09-19T19:48:20;94931.22;;;19.33;100.00
9235;BME280;4652;42.716;23.218;2023-09-19T19:55:02;94966.16;;;19.28;100.00
9235;BME280;4652;42.716;23.218;2023-09-19T20:01:47;95003.16;;;19.38;100.00
9235;BME280;4652;42.716;23.218;2023-09-19T20:08:31;95050.34;;;19.47;100.00
9235;BME280;4652;42.716;23.218;2023-09-19T20:15:13;95068.22;;;19.23;100.00
9235;BME280;4652;42.716;23.218;2023-09-19T20:21:55;95130.88;;;18.87;100.00
9235;BME280;4652;42.716;23.218;2023-09-19T20:28:40;95171.34;;;18.85;100.00
9235;BME280;4652;42.716;23.218;2023-09-19T20:35:22;95164.69;;;18.74;100.00
9235;BME280;4652;42.716;23.218;2023-09-19T20:54:56;95248.78;;;17.88;100.00
9235;BME280;4652;42.716;23.218;2023-09-19T21:01:38;95231.16;;;17.85;100.00
9235;BME280;4652;42.716;23.218;2023-09-19T21:08:20;95209.03;;;17.87;100.00
9235;BME280;4652;42.716;23.218;2023-09-19T21:15:04;95221.31;;;18.10;100.00
9235;BME280;4652;42.716;23.218;2023-09-19T21:21:47;95122.53;;;17.75;100.00
9235;BME280;4652;42.716;23.218;2023-09-19T21:28:29;95069.34;;;17.31;100.00
9235;BME280;4652;42.716;23.218;2023-09-19T21:35:12;95106.97;;;17.21;100.00
9235;BME280;4652;42.716;23.218;2023-09-19T21:41:54;95103.13;;;17.22;100.00
9235;BME280;4652;42.716;23.218;2023-09-19T21:48:37;95111.13;;;17.18;100.00
9235;BME280;4652;42.716;23.218;2023-09-19T21:55:20;95122.00;;;17.27;100.00
9235;BME280;4652;42.716;23.218;2023-09-19T22:02:07;95109.47;;;17.34;100.00
9235;BME280;4652;42.716;23.218;2023-09-19T22:08:50;95108.72;;;17.34;100.00
9235;BME280;4652;42.716;23.218;2023-09-19T22:15:34;95114.25;;;17.46;100.00
9235;BME280;4652;42.716;23.218;2023-09-19T22:22:16;95102.25;;;17.47;100.00
9235;BME280;4652;42.716;23.218;2023-09-19T22:28:58;95092.19;;;17.56;100.00
9235;BME280;4652;42.716;23.218;2023-09-19T22:35:42;95096.44;;;17.66;100.00
9235;BME280;4652;42.716;23.218;2023-09-19T22:42:27;95073.13;;;17.47;100.00
9235;BME280;4652;42.716;23.218;2023-09-19T22:49:09;95101.94;;;17.57;100.00
9235;BME280;4652;42.716;23.218;2023-09-19T22:55:58;95081.91;;;17.53;100.00
9235;BME280;4652;42.716;23.218;2023-09-19T23:02:40;95074.84;;;17.52;100.00
9235;BME280;4652;42.716;23.218;2023-09-19T23:09:23;95075.41;;;17.28;100.00
9235;BME280;4652;42.716;23.218;2023-09-19T23:16:08;95091.31;;;17.18;100.00
9235;BME280;4652;42.716;23.218;2023-09-19T23:22:53;95086.44;;;17.32;100.00
9235;BME280;4652;42.716;23.218;2023-09-19T23:29:39;95069.66;;;17.21;100.00
9235;BME280;4652;42.716;23.218;2023-09-19T23:36:22;95042.81;;;17.11;100.00
9235;BME280;4652;42.716;23.218;2023-09-19T23:43:05;95055.44;;;17.16;100.00
9235;BME280;4652;42.716;23.218;2023-09-19T23:49:52;95040.28;;;16.89;100.00
9235;BME280;4652;42.716;23.218;2023-09-19T23:56:35;95078.03;;;17.08;100.00
